Time;durP1;ratioP1;P1;durP2;ratioP2;P2;SDS_P1;SDS_P2;PMS_P1;PMS_P2;Temp;Humidity;BMP_temperature;BMP_pressure;BME280_temperature;BME280_humidity;BME280_pressure;Samples;Min_cycle;Max_cycle;Signal;HPM_P1;HPM_P2
2022/10/16 04:00:46;;;;;;;2.67;1.58;;;;;;;;;;5928052;22;20450;-88
2022/10/16 04:03:12;;;;;;;2.60;1.33;;;;;;;;;;5008700;28;20906;-86
2022/10/16 04:05:38;;;;;;;1.97;1.37;;;;;;;;;;5012364;28;20454;-86
2022/10/16 04:08:04;;;;;;;3.55;1.70;;;;;;;;;;5013204;28;20384;-87
2022/10/16 04:10:30;;;;;;;2.63;1.45;;;;;;;;;;5013175;28;20748;-87
2022/10/16 04:12:56;;;;;;;3.55;1.30;;;;;;;;;;5012911;28;20476;-87
2022/10/16 04:15:25;;;;;;;2.30;1.13;;;;;;;;;;5013024;28;20423;-87
2022/10/16 04:17:52;;;;;;;3.70;1.20;;;;;;;;;;5013276;28;20854;-86
2022/10/16 04:20:18;;;;;;;2.88;1.50;;;;;;;;;;5013127;28;20377;-87
2022/10/16 04:22:44;;;;;;;2.58;1.33;;;;;;;;;;5013191;28;20726;-87
2022/10/16 04:25:11;;;;;;;3.40;1.20;;;;;;;;;;5012231;28;20384;-86
2022/10/16 04:27:37;;;;;;;3.67;1.20;;;;;;;;;;5001949;28;20414;-86
2022/10/16 04:30:04;;;;;;;2.38;1.40;;;;;;;;;;5008739;28;20885;-88
2022/10/16 04:32:30;;;;;;;3.80;1.40;;;;;;;;;;4998424;28;20932;-87
2022/10/16 04:34:56;;;;;;;3.10;1.30;;;;;;;;;;5003820;28;20386;-86
2022/10/16 04:37:26;;;;;;;2.77;1.50;;;;;;;;;;5012314;28;20413;-87
2022/10/16 04:39:52;;;;;;;1.40;1.30;;;;;;;;;;5012520;28;20396;-87
2022/10/16 04:42:18;;;;;;;2.13;1.35;;;;;;;;;;5012583;28;20389;-87
2022/10/16 04:44:44;;;;;;;3.20;1.45;;;;;;;;;;5013050;28;20758;-87
2022/10/16 04:47:11;;;;;;;3.65;1.40;;;;;;;;;;5013094;28;20385;-86
2022/10/16 04:49:36;;;;;;;5.07;1.48;;;;;;;;;;5012994;28;20900;-87
2022/10/16 04:52:03;;;;;;;2.95;1.30;;;;;;;;;;5012646;28;20393;-87
2022/10/16 04:54:29;;;;;;;2.90;1.50;;;;;;;;;;5012655;28;20464;-87
2022/10/16 04:56:55;;;;;;;6.10;1.45;;;;;;;;;;5012446;28;20419;-87
2022/10/16 04:59:22;;;;;;;2.95;1.48;;;;;;;;;;5012580;28;20377;-87
2022/10/16 05:01:48;;;;;;;3.15;1.50;;;;;;;;;;4995028;28;20392;-87
2022/10/16 05:04:14;;;;;;;2.97;1.67;;;;;;;;;;5012399;28;20384;-86
2022/10/16 05:06:41;;;;;;;2.03;1.47;;;;;;;;;;5012671;28;20380;-87
2022/10/16 05:09:07;;;;;;;3.10;1.90;;;;;;;;;;5012434;28;20739;-88
2022/10/16 05:11:33;;;;;;;3.50;1.70;;;;;;;;;;5012321;28;20805;-86
2022/10/16 05:13:59;;;;;;;2.83;1.35;;;;;;;;;;5012347;28;20373;-86
2022/10/16 05:16:26;;;;;;;6.73;1.60;;;;;;;;;;5012835;28;20411;-87
2022/10/16 05:18:52;;;;;;;2.10;1.50;;;;;;;;;;5012347;28;20480;-88
2022/10/16 05:21:18;;;;;;;2.97;1.60;;;;;;;;;;5009511;28;20373;-86
2022/10/16 05:23:44;;;;;;;2.83;1.65;;;;;;;;;;5002832;28;20395;-86
2022/10/16 05:26:10;;;;;;;2.63;1.60;;;;;;;;;;5014626;28;20491;-86
2022/10/16 05:28:36;;;;;;;2.85;1.50;;;;;;;;;;5006351;28;20559;-87
2022/10/16 05:31:09;;;;;;;3.97;1.70;;;;;;;;;;5012114;28;20400;-88
2022/10/16 05:33:35;;;;;;;2.15;1.70;;;;;;;;;;5012643;28;20388;-87
2022/10/16 05:36:03;;;;;;;4.10;1.65;;;;;;;;;;5012779;28;20754;-86
2022/10/16 05:38:28;;;;;;;2.77;1.77;;;;;;;;;;5026187;28;20384;-86
2022/10/16 05:40:56;;;;;;;5.82;1.73;;;;;;;;;;5012066;28;20388;-87
2022/10/16 05:43:22;;;;;;;3.40;1.70;;;;;;;;;;5012249;28;20878;-86
2022/10/16 05:46:20;;;;;;;2.58;1.60;;;;;;;;;;5012442;28;20419;-87
2022/10/16 05:48:46;;;;;;;2.90;1.23;;;;;;;;;;4959050;28;20738;-87
2022/10/16 05:51:13;;;;;;;4.57;1.30;;;;;;;;;;5013335;28;20807;-87
2022/10/16 05:53:40;;;;;;;3.42;1.15;;;;;;;;;;5016259;28;20377;-86
2022/10/16 05:56:07;;;;;;;7.18;1.55;;;;;;;;;;5015932;28;20385;-88
2022/10/16 05:58:35;;;;;;;4.15;1.30;;;;;;;;;;5017078;28;20472;-88
2022/10/16 06:01:05;;;;;;;2.80;1.20;;;;;;;;;;5016421;28;20393;-89
2022/10/16 06:03:31;;;;;;;2.72;1.20;;;;;;;;;;5015993;28;20806;-88
2022/10/16 06:05:57;;;;;;;2.75;1.30;;;;;;;;;;5015770;28;20969;-89
2022/10/16 06:08:23;;;;;;;2.60;1.10;;;;;;;;;;5013359;28;20479;-87
2022/10/16 06:11:00;;;;;;;2.75;1.13;;;;;;;;;;5013728;28;20376;-89
2022/10/16 06:13:29;;;;;;;4.45;1.10;;;;;;;;;;5012851;28;20381;-89
2022/10/16 06:15:57;;;;;;;4.57;1.35;;;;;;;;;;5013332;28;20380;-88
2022/10/16 06:18:23;;;;;;;2.58;1.23;;;;;;;;;;5013147;28;20420;-88
2022/10/16 06:20:49;;;;;;;2.38;1.20;;;;;;;;;;5013964;28;20861;-89
2022/10/16 06:23:15;;;;;;;2.35;1.20;;;;;;;;;;5015273;28;20510;-89
2022/10/16 06:25:41;;;;;;;2.70;1.15;;;;;;;;;;5015213;28;20901;-89
2022/10/16 06:28:07;;;;;;;2.75;1.58;;;;;;;;;;5014755;28;20536;-88
2022/10/16 06:30:33;;;;;;;4.82;1.67;;;;;;;;;;5015093;28;20385;-88
2022/10/16 06:32:59;;;;;;;1.70;1.40;;;;;;;;;;5015137;28;20554;-88
2022/10/16 06:35:25;;;;;;;3.20;1.52;;;;;;;;;;5014598;28;20399;-88
2022/10/16 06:37:50;;;;;;;4.32;1.70;;;;;;;;;;5014423;28;20385;-89
2022/10/16 06:40:16;;;;;;;4.57;1.67;;;;;;;;;;5015006;28;21002;-88
2022/10/16 06:42:42;;;;;;;3.00;1.40;;;;;;;;;;5014049;28;20396;-89
2022/10/16 06:45:09;;;;;;;4.15;1.63;;;;;;;;;;4992842;28;20921;-88
2022/10/16 06:47:35;;;;;;;2.55;2.00;;;;;;;;;;5016798;28;20381;-88
2022/10/16 06:50:01;;;;;;;4.05;2.22;;;;;;;;;;5013148;28;20377;-88
2022/10/16 06:52:30;;;;;;;2.97;2.40;;;;;;;;;;5015274;28;20380;-88
2022/10/16 06:54:56;;;;;;;5.72;2.20;;;;;;;;;;5014235;28;20392;-88
2022/10/16 06:57:22;;;;;;;3.00;1.90;;;;;;;;;;5013816;28;20396;-88
2022/10/16 06:59:48;;;;;;;4.57;1.90;;;;;;;;;;5014580;28;20830;-89
2022/10/16 07:02:13;;;;;;;2.90;1.70;;;;;;;;;;5027848;28;20420;-88
2022/10/16 07:04:40;;;;;;;3.17;1.80;;;;;;;;;;5014285;28;20451;-88
2022/10/16 07:07:05;;;;;;;2.10;1.65;;;;;;;;;;5014044;28;20408;-86
2022/10/16 07:09:31;;;;;;;7.03;3.05;;;;;;;;;;5014322;28;20427;-87
2022/10/16 07:11:57;;;;;;;4.00;2.20;;;;;;;;;;5014484;28;20377;-88
2022/10/16 07:14:23;;;;;;;5.03;1.93;;;;;;;;;;5014235;28;20742;-88
2022/10/16 07:16:49;;;;;;;2.47;1.80;;;;;;;;;;5014164;28;20432;-86
2022/10/16 07:19:17;;;;;;;3.92;2.03;;;;;;;;;;5013844;28;20381;-88
2022/10/16 07:21:44;;;;;;;5.05;1.88;;;;;;;;;;5008984;28;20464;-87
2022/10/16 07:24:16;;;;;;;3.45;2.10;;;;;;;;;;5013871;28;20384;-87
2022/10/16 07:26:44;;;;;;;2.35;1.60;;;;;;;;;;5013920;28;20389;-87
2022/10/16 07:29:14;;;;;;;5.43;2.50;;;;;;;;;;5013681;28;20399;-87
2022/10/16 07:31:40;;;;;;;2.33;2.13;;;;;;;;;;5013806;28;20389;-87
2022/10/16 07:34:06;;;;;;;5.45;2.33;;;;;;;;;;5011218;28;20400;-87
2022/10/16 07:36:32;;;;;;;2.67;2.03;;;;;;;;;;5013518;28;20929;-88
2022/10/16 07:38:58;;;;;;;3.88;2.30;;;;;;;;;;5014012;28;20485;-85
2022/10/16 07:41:24;;;;;;;6.20;3.45;;;;;;;;;;5013846;28;20385;-86
2022/10/16 07:43:51;;;;;;;5.20;3.53;;;;;;;;;;5013706;28;20435;-86
2022/10/16 07:46:17;;;;;;;4.63;4.17;;;;;;;;;;5013769;28;20408;-87
2022/10/16 07:48:46;;;;;;;4.10;3.70;;;;;;;;;;5013681;28;20373;-88
2022/10/16 07:51:12;;;;;;;4.80;3.45;;;;;;;;;;5013262;28;20626;-87
2022/10/16 07:53:38;;;;;;;4.13;3.00;;;;;;;;;;5013547;28;20392;-88
2022/10/16 07:56:05;;;;;;;2.83;2.63;;;;;;;;;;5013481;28;20455;-87
2022/10/16 07:58:32;;;;;;;2.88;2.63;;;;;;;;;;5013350;28;20400;-87
2022/10/16 08:00:58;;;;;;;3.97;2.88;;;;;;;;;;4994044;28;20490;-89
2022/10/16 08:03:24;;;;;;;2.95;2.75;;;;;;;;;;5013369;28;20850;-88
2022/10/16 08:05:50;;;;;;;3.97;2.80;;;;;;;;;;5013200;28;20420;-88
2022/10/16 08:08:17;;;;;;;3.33;3.00;;;;;;;;;;5013439;28;20377;-88
2022/10/16 08:10:43;;;;;;;3.22;2.78;;;;;;;;;;5004626;28;20416;-88
2022/10/16 08:13:09;;;;;;;4.28;3.25;;;;;;;;;;5010767;28;20431;-89
2022/10/16 08:15:35;;;;;;;6.68;3.30;;;;;;;;;;5005573;28;20862;-90
2022/10/16 08:18:02;;;;;;;3.60;3.15;;;;;;;;;;5011507;28;20468;-88
2022/10/16 08:20:29;;;;;;;3.80;3.50;;;;;;;;;;5011523;28;20904;-89
2022/10/16 08:22:56;;;;;;;4.68;3.70;;;;;;;;;;5008045;28;20459;-91
2022/10/16 08:25:22;;;;;;;4.45;4.03;;;;;;;;;;5011901;28;20427;-89
2022/10/16 08:27:51;;;;;;;3.58;3.20;;;;;;;;;;5012423;28;20389;-88
2022/10/16 08:30:18;;;;;;;6.82;3.78;;;;;;;;;;5012314;28;20470;-91
2022/10/16 08:32:44;;;;;;;6.03;3.85;;;;;;;;;;5012495;28;20735;-91
2022/10/16 08:35:11;;;;;;;4.80;4.35;;;;;;;;;;5011839;28;20471;-91
2022/10/16 08:37:37;;;;;;;5.47;4.97;;;;;;;;;;5014491;28;20804;-90
2022/10/16 08:40:04;;;;;;;6.57;5.55;;;;;;;;;;5014066;28;20388;-90
2022/10/16 08:42:42;;;;;;;7.45;6.00;;;;;;;;;;5013445;28;20385;-89
2022/10/16 08:45:26;;;;;;;5.80;5.30;;;;;;;;;;5013156;28;20432;-90
2022/10/16 08:48:19;;;;;;;6.28;4.63;;;;;;;;;;4999570;28;20392;-90
2022/10/16 08:50:46;;;;;;;5.43;4.60;;;;;;;;;;4978930;28;20405;-89
2022/10/16 08:53:16;;;;;;;5.15;4.65;;;;;;;;;;5003006;28;20381;-90
2022/10/16 08:55:44;;;;;;;4.88;4.47;;;;;;;;;;5012841;28;20407;-90
2022/10/16 08:58:15;;;;;;;10.57;4.00;;;;;;;;;;5000723;28;20561;-89
2022/10/16 09:00:42;;;;;;;5.93;4.30;;;;;;;;;;5018781;28;20457;-89
2022/10/16 09:03:27;;;;;;;4.63;3.38;;;;;;;;;;5008547;28;20401;-89
2022/10/16 09:05:53;;;;;;;5.43;3.85;;;;;;;;;;5012205;28;20435;-89
2022/10/16 09:08:39;;;;;;;6.75;4.35;;;;;;;;;;5012811;28;20850;-89
2022/10/16 09:11:07;;;;;;;4.18;3.22;;;;;;;;;;5003571;28;20400;-89
2022/10/16 09:13:41;;;;;;;6.33;3.30;;;;;;;;;;4995878;28;20433;-89
2022/10/16 09:16:10;;;;;;;4.68;3.40;;;;;;;;;;5014795;28;20381;-90
2022/10/16 09:18:36;;;;;;;4.85;2.95;;;;;;;;;;4996900;28;20480;-89
2022/10/16 09:21:14;;;;;;;4.03;2.70;;;;;;;;;;5013163;28;20476;-88
2022/10/16 09:23:40;;;;;;;5.55;2.80;;;;;;;;;;5003228;28;20795;-90
2022/10/16 09:26:10;;;;;;;4.33;2.97;;;;;;;;;;5014480;28;20447;-89
2022/10/16 09:28:36;;;;;;;5.10;2.92;;;;;;;;;;5016323;28;20385;-90
2022/10/16 09:31:02;;;;;;;7.03;2.70;;;;;;;;;;5014744;28;20415;-89
2022/10/16 09:33:35;;;;;;;3.00;2.60;;;;;;;;;;5016279;28;20385;-89
2022/10/16 09:36:03;;;;;;;3.17;2.28;;;;;;;;;;5016559;28;20384;-89
2022/10/16 09:38:31;;;;;;;2.90;2.15;;;;;;;;;;5020362;28;20379;-89
2022/10/16 09:40:58;;;;;;;5.13;2.63;;;;;;;;;;5007636;28;20404;-89
2022/10/16 09:43:25;;;;;;;2.55;2.20;;;;;;;;;;4998004;28;20384;-89
2022/10/16 09:45:58;;;;;;;3.17;2.38;;;;;;;;;;4998387;28;20574;-90
2022/10/16 09:48:25;;;;;;;3.85;2.40;;;;;;;;;;4994106;28;20395;-88
2022/10/16 09:50:59;;;;;;;3.35;1.90;;;;;;;;;;5015652;28;20746;-88
2022/10/16 09:53:26;;;;;;;3.42;2.17;;;;;;;;;;5015562;28;20512;-87
2022/10/16 09:55:53;;;;;;;2.40;2.20;;;;;;;;;;4998104;28;20384;-88
2022/10/16 09:58:23;;;;;;;3.05;2.25;;;;;;;;;;4994985;28;20430;-88
2022/10/16 10:00:53;;;;;;;2.53;2.28;;;;;;;;;;5014324;28;20543;-88
2022/10/16 10:03:36;;;;;;;2.87;2.43;;;;;;;;;;4997396;28;20393;-87
2022/10/16 10:06:16;;;;;;;4.05;2.72;;;;;;;;;;5000557;28;20420;-87
2022/10/16 10:08:42;;;;;;;3.28;2.53;;;;;;;;;;4998452;28;20747;-89
2022/10/16 10:11:08;;;;;;;5.05;2.50;;;;;;;;;;4997618;28;20385;-88
2022/10/16 10:13:34;;;;;;;3.30;2.60;;;;;;;;;;5010193;28;20382;-88
2022/10/16 10:16:00;;;;;;;6.35;2.70;;;;;;;;;;5017745;28;20846;-88
2022/10/16 10:18:26;;;;;;;3.97;2.80;;;;;;;;;;5015363;28;20420;-88
2022/10/16 10:20:59;;;;;;;5.00;2.88;;;;;;;;;;5015180;28;20854;-89
2022/10/16 10:23:26;;;;;;;5.78;2.65;;;;;;;;;;5015813;28;20389;-88
2022/10/16 10:25:58;;;;;;;3.50;2.40;;;;;;;;;;5017464;28;20416;-87
2022/10/16 10:28:51;;;;;;;3.25;2.40;;;;;;;;;;4997888;28;20863;-88
2022/10/16 10:31:29;;;;;;;6.47;2.60;;;;;;;;;;4993193;28;20373;-89
2022/10/16 10:34:13;;;;;;;2.67;2.45;;;;;;;;;;4997472;28;20369;-87
2022/10/16 10:36:41;;;;;;;2.30;2.10;;;;;;;;;;5021023;28;20888;-88
2022/10/16 10:39:12;;;;;;;2.88;1.88;;;;;;;;;;5022069;28;20741;-89
2022/10/16 10:41:57;;;;;;;4.03;2.00;;;;;;;;;;5015301;28;20389;-89
2022/10/16 10:44:38;;;;;;;3.55;1.83;;;;;;;;;;5025394;28;20377;-89
2022/10/16 10:47:14;;;;;;;3.88;2.05;;;;;;;;;;4997684;28;20784;-89
2022/10/16 10:49:40;;;;;;;3.78;1.90;;;;;;;;;;5010957;28;20376;-89
2022/10/16 10:52:06;;;;;;;2.03;1.80;;;;;;;;;;5014657;28;20385;-88
2022/10/16 10:54:37;;;;;;;3.88;1.70;;;;;;;;;;5014704;28;20399;-89
2022/10/16 10:57:22;;;;;;;3.55;1.58;;;;;;;;;;5012623;28;20381;-88
2022/10/16 11:00:01;;;;;;;5.00;2.03;;;;;;;;;;5014634;28;20381;-89
2022/10/16 11:02:36;;;;;;;3.33;1.60;;;;;;;;;;5014391;28;20477;-89
2022/10/16 11:05:11;;;;;;;1.93;1.70;;;;;;;;;;4996945;28;20439;-89
2022/10/16 11:07:40;;;;;;;5.00;1.65;;;;;;;;;;5014217;28;20380;-90
2022/10/16 11:10:14;;;;;;;3.15;1.40;;;;;;;;;;5014389;28;20423;-89
2022/10/16 11:12:43;;;;;;;3.45;1.50;;;;;;;;;;5014398;28;20409;-89
2022/10/16 11:15:14;;;;;;;3.35;1.50;;;;;;;;;;5014458;28;20395;-90
2022/10/16 11:17:44;;;;;;;2.88;1.60;;;;;;;;;;4995852;28;20435;-90
2022/10/16 11:20:16;;;;;;;2.53;1.20;;;;;;;;;;5014321;28;20423;-89
2022/10/16 11:22:45;;;;;;;2.20;1.20;;;;;;;;;;4996746;28;20389;-89
2022/10/16 11:25:14;;;;;;;2.00;1.20;;;;;;;;;;4995038;28;20890;-90
2022/10/16 11:27:43;;;;;;;1.60;1.10;;;;;;;;;;5013176;28;20407;-89
2022/10/16 11:30:16;;;;;;;2.50;1.13;;;;;;;;;;5013627;28;20384;-89
2022/10/16 11:32:57;;;;;;;2.20;1.38;;;;;;;;;;5016678;28;20391;-90
2022/10/16 11:35:25;;;;;;;4.20;1.10;;;;;;;;;;5021620;28;20385;-91
2022/10/16 11:37:52;;;;;;;4.82;1.50;;;;;;;;;;4996189;28;20393;-89
2022/10/16 11:40:29;;;;;;;1.67;1.40;;;;;;;;;;5014447;28;20539;-85
2022/10/16 11:42:58;;;;;;;5.47;1.90;;;;;;;;;;5013285;28;20391;-85
2022/10/16 11:45:40;;;;;;;2.13;1.60;;;;;;;;;;4995472;28;21070;-85
2022/10/16 11:48:26;;;;;;;3.38;1.35;;;;;;;;;;5013516;28;20405;-86
2022/10/16 11:51:07;;;;;;;2.95;1.60;;;;;;;;;;4996071;28;20389;-86
2022/10/16 11:53:33;;;;;;;3.33;1.40;;;;;;;;;;5013592;28;20387;-86
2022/10/16 11:55:59;;;;;;;2.67;1.47;;;;;;;;;;5013634;28;20475;-86
2022/10/16 11:58:38;;;;;;;1.50;1.40;;;;;;;;;;5013471;28;20393;-85
2022/10/16 12:01:04;;;;;;;4.00;1.15;;;;;;;;;;5013465;28;20741;-85
2022/10/16 12:03:51;;;;;;;2.85;1.42;;;;;;;;;;5013538;28;20485;-85
2022/10/16 12:06:24;;;;;;;2.28;1.33;;;;;;;;;;4964580;28;20423;-86
2022/10/16 12:08:51;;;;;;;3.08;1.35;;;;;;;;;;5013415;28;20391;-85
2022/10/16 12:11:31;;;;;;;2.23;1.20;;;;;;;;;;5134461;27;20362;-85
2022/10/16 12:14:13;;;;;;;3.27;1.17;;;;;;;;;;5090055;28;20846;-85
2022/10/16 12:16:51;;;;;;;2.40;1.00;;;;;;;;;;5089777;28;20399;-85
2022/10/16 12:19:18;;;;;;;2.50;1.20;;;;;;;;;;5089935;28;20405;-85
2022/10/16 12:21:45;;;;;;;3.33;1.13;;;;;;;;;;5089590;28;20383;-85
2022/10/16 12:24:21;;;;;;;2.50;1.00;;;;;;;;;;5089601;28;20379;-85
2022/10/16 12:26:49;;;;;;;3.97;1.20;;;;;;;;;;5093633;28;20853;-85
2022/10/16 12:29:22;;;;;;;1.55;1.20;;;;;;;;;;5087437;28;22337;-85
2022/10/16 12:31:49;;;;;;;4.10;1.20;;;;;;;;;;5089465;28;20386;-86
2022/10/16 12:34:28;;;;;;;2.20;1.08;;;;;;;;;;5088045;28;20902;-85
2022/10/16 12:36:54;;;;;;;3.03;1.20;;;;;;;;;;5088390;28;20391;-85
2022/10/16 12:39:28;;;;;;;2.72;1.30;;;;;;;;;;5089277;28;20872;-85
2022/10/16 12:42:05;;;;;;;2.10;1.17;;;;;;;;;;5089207;28;20379;-84
2022/10/16 12:44:35;;;;;;;3.10;1.15;;;;;;;;;;5089315;28;20441;-84
2022/10/16 12:47:01;;;;;;;1.55;1.20;;;;;;;;;;5089332;28;20371;-85
2022/10/16 12:49:30;;;;;;;4.68;1.30;;;;;;;;;;5089070;28;20410;-85
2022/10/16 12:51:56;;;;;;;2.90;1.20;;;;;;;;;;5088926;28;20368;-84
2022/10/16 12:54:29;;;;;;;4.03;1.20;;;;;;;;;;5088649;28;20432;-85
2022/10/16 12:57:07;;;;;;;1.23;1.13;;;;;;;;;;5088959;28;20410;-84
2022/10/16 12:59:52;;;;;;;0.95;0.90;;;;;;;;;;5087699;28;20474;-85
2022/10/16 13:02:21;;;;;;;1.85;0.80;;;;;;;;;;5088807;28;20379;-84
2022/10/16 13:04:59;;;;;;;1.15;0.80;;;;;;;;;;5088869;28;20386;-85
2022/10/16 13:07:31;;;;;;;2.10;0.90;;;;;;;;;;5087328;28;20895;-85
2022/10/16 13:10:03;;;;;;;1.35;1.00;;;;;;;;;;5088507;28;20873;-85
2022/10/16 13:12:38;;;;;;;3.35;1.00;;;;;;;;;;5087354;28;20367;-84
2022/10/16 13:15:10;;;;;;;4.35;1.15;;;;;;;;;;5088608;28;20883;-85
2022/10/16 13:17:48;;;;;;;3.53;1.30;;;;;;;;;;5088628;28;20372;-84
2022/10/16 13:20:18;;;;;;;1.75;1.20;;;;;;;;;;5088545;28;20399;-84
2022/10/16 13:22:47;;;;;;;2.47;1.20;;;;;;;;;;5075130;28;20382;-85
2022/10/16 13:25:16;;;;;;;2.40;1.40;;;;;;;;;;5074922;28;20869;-84
2022/10/16 13:27:45;;;;;;;1.88;1.27;;;;;;;;;;5074877;28;20468;-85
2022/10/16 13:30:13;;;;;;;2.40;1.33;;;;;;;;;;5073722;28;20411;-85
2022/10/16 13:32:39;;;;;;;3.45;1.20;;;;;;;;;;5074673;28;20411;-85
2022/10/16 13:35:18;;;;;;;2.72;1.30;;;;;;;;;;5075199;28;20380;-85
2022/10/16 13:37:44;;;;;;;3.30;1.30;;;;;;;;;;5073656;28;20384;-85
2022/10/16 13:40:21;;;;;;;2.65;1.40;;;;;;;;;;5074370;28;20406;-85
2022/10/16 13:42:48;;;;;;;2.23;1.17;;;;;;;;;;5074637;28;20375;-84
2022/10/16 13:45:25;;;;;;;2.72;1.35;;;;;;;;;;5074560;28;20423;-84
2022/10/16 13:48:01;;;;;;;2.83;1.23;;;;;;;;;;5073325;28;20791;-84
2022/10/16 13:50:27;;;;;;;3.00;1.23;;;;;;;;;;5074500;28;20460;-84
2022/10/16 13:53:03;;;;;;;2.28;1.25;;;;;;;;;;5074563;28;20387;-84
2022/10/16 13:55:29;;;;;;;4.47;1.52;;;;;;;;;;5074487;28;20368;-85
2022/10/16 13:58:04;;;;;;;3.95;1.08;;;;;;;;;;5073091;28;20396;-85
2022/10/16 14:00:31;;;;;;;4.87;1.00;;;;;;;;;;5072921;28;20945;-84
2022/10/16 14:03:05;;;;;;;1.20;1.10;;;;;;;;;;5074583;28;20418;-84
2022/10/16 14:05:31;;;;;;;1.85;1.40;;;;;;;;;;5072879;28;20376;-85
2022/10/16 14:07:58;;;;;;;2.80;1.50;;;;;;;;;;5074198;28;20395;-84
2022/10/16 14:10:26;;;;;;;2.78;1.50;;;;;;;;;;5073812;28;20419;-85
2022/10/16 14:12:56;;;;;;;2.90;1.48;;;;;;;;;;5074289;28;20372;-84
2022/10/16 14:15:22;;;;;;;1.50;1.40;;;;;;;;;;5073914;28;20371;-85
2022/10/16 14:17:51;;;;;;;1.70;1.23;;;;;;;;;;5074045;28;20805;-84
2022/10/16 14:20:17;;;;;;;1.27;1.00;;;;;;;;;;5073899;28;20470;-84
2022/10/16 14:22:43;;;;;;;1.95;1.15;;;;;;;;;;5073872;28;20383;-84
2022/10/16 14:25:21;;;;;;;3.57;1.20;;;;;;;;;;5073824;28;20467;-85
2022/10/16 14:28:16;;;;;;;1.92;1.50;;;;;;;;;;5073640;28;20433;-85
2022/10/16 14:30:53;;;;;;;3.38;1.10;;;;;;;;;;5073710;28;20410;-85
2022/10/16 14:33:25;;;;;;;1.80;1.25;;;;;;;;;;5072888;28;20368;-84
2022/10/16 14:36:00;;;;;;;1.63;1.02;;;;;;;;;;5073639;28;20404;-85
2022/10/16 14:38:26;;;;;;;1.23;1.10;;;;;;;;;;5073629;28;20384;-85
2022/10/16 14:40:52;;;;;;;1.58;1.08;;;;;;;;;;5073503;28;20418;-84
2022/10/16 14:43:47;;;;;;;1.10;1.00;;;;;;;;;;5073598;28;20412;-84
2022/10/16 14:46:17;;;;;;;2.63;1.40;;;;;;;;;;5068767;28;20403;-84
2022/10/16 14:48:46;;;;;;;1.98;0.90;;;;;;;;;;5073149;28;20403;-84
2022/10/16 14:51:14;;;;;;;1.65;1.20;;;;;;;;;;5071890;28;20440;-84
2022/10/16 14:53:41;;;;;;;1.63;0.82;;;;;;;;;;5073448;28;20372;-85
2022/10/16 14:56:08;;;;;;;1.65;0.80;;;;;;;;;;5073351;28;20372;-84
2022/10/16 14:58:35;;;;;;;4.35;1.27;;;;;;;;;;5073114;28;20733;-85
2022/10/16 15:01:01;;;;;;;3.25;1.27;;;;;;;;;;5073167;28;20418;-84
2022/10/16 15:03:27;;;;;;;3.33;1.00;;;;;;;;;;5072585;28;20376;-84
2022/10/16 15:05:53;;;;;;;1.23;1.00;;;;;;;;;;5073078;28;20372;-84
2022/10/16 15:08:19;;;;;;;4.00;1.10;;;;;;;;;;5073023;28;20733;-84
2022/10/16 15:10:45;;;;;;;3.80;1.30;;;;;;;;;;5072814;28;20415;-84
2022/10/16 15:13:14;;;;;;;2.85;1.10;;;;;;;;;;5072880;28;20367;-84
2022/10/16 15:15:45;;;;;;;2.90;1.20;;;;;;;;;;5072798;28;20371;-85
2022/10/16 15:18:11;;;;;;;3.30;1.40;;;;;;;;;;5070639;28;20414;-85
2022/10/16 15:20:38;;;;;;;3.28;1.00;;;;;;;;;;5069302;28;20427;-87
2022/10/16 15:23:07;;;;;;;2.35;0.90;;;;;;;;;;5071950;28;20386;-86
2022/10/16 15:25:39;;;;;;;2.28;1.05;;;;;;;;;;5070636;28;20380;-86
2022/10/16 15:28:06;;;;;;;1.15;0.95;;;;;;;;;;5072030;28;20384;-86
2022/10/16 15:30:33;;;;;;;4.38;1.10;;;;;;;;;;5070454;28;20408;-85
2022/10/16 15:32:59;;;;;;;6.60;1.50;;;;;;;;;;5071402;28;20383;-85
2022/10/16 15:35:25;;;;;;;3.42;1.17;;;;;;;;;;5070144;28;20471;-84
2022/10/16 15:37:51;;;;;;;4.07;1.40;;;;;;;;;;5070863;28;20380;-85
2022/10/16 15:40:18;;;;;;;3.45;1.20;;;;;;;;;;5071215;28;20387;-85
2022/10/16 15:42:44;;;;;;;4.03;1.33;;;;;;;;;;5071004;28;20376;-84
2022/10/16 15:45:11;;;;;;;3.00;1.10;;;;;;;;;;5071285;28;20387;-84
2022/10/16 15:47:37;;;;;;;2.85;1.40;;;;;;;;;;5070019;28;20898;-83
2022/10/16 15:50:04;;;;;;;2.30;1.20;;;;;;;;;;5069162;28;20454;-84
2022/10/16 15:52:31;;;;;;;3.90;1.50;;;;;;;;;;5071776;28;20455;-83
2022/10/16 15:54:57;;;;;;;1.90;1.30;;;;;;;;;;5070127;28;20384;-82
2022/10/16 15:57:23;;;;;;;2.72;1.50;;;;;;;;;;5072285;28;20470;-83
2022/10/16 15:59:50;;;;;;;3.43;1.40;;;;;;;;;;5072261;28;20456;-82
2022/10/16 16:02:16;;;;;;;3.65;1.73;;;;;;;;;;5072089;28;20384;-83
2022/10/16 16:04:42;;;;;;;4.32;1.60;;;;;;;;;;5070993;28;20442;-82
2022/10/16 16:07:08;;;;;;;3.33;1.42;;;;;;;;;;5072087;28;20380;-82
2022/10/16 16:09:34;;;;;;;4.60;1.60;;;;;;;;;;5071955;28;20959;-82
2022/10/16 16:12:00;;;;;;;3.88;1.40;;;;;;;;;;5072078;28;20407;-82
2022/10/16 16:14:30;;;;;;;5.13;1.55;;;;;;;;;;5072107;28;20889;-82
2022/10/16 16:16:56;;;;;;;5.50;1.50;;;;;;;;;;5072110;28;20407;-82
2022/10/16 16:19:22;;;;;;;5.60;1.55;;;;;;;;;;5072114;28;20861;-84
2022/10/16 16:21:49;;;;;;;6.68;1.40;;;;;;;;;;5071369;28;20746;-84
2022/10/16 16:24:15;;;;;;;4.60;1.65;;;;;;;;;;5071506;28;20380;-84
2022/10/16 16:26:43;;;;;;;6.03;1.67;;;;;;;;;;5070562;28;20429;-84
2022/10/16 16:29:10;;;;;;;3.10;1.80;;;;;;;;;;5071073;28;20380;-84
2022/10/16 16:31:36;;;;;;;2.78;2.10;;;;;;;;;;5070913;28;20399;-84
2022/10/16 16:34:02;;;;;;;7.97;2.40;;;;;;;;;;5071844;28;20384;-84
2022/10/16 16:36:28;;;;;;;4.85;2.08;;;;;;;;;;5071912;28;20384;-84
2022/10/16 16:38:54;;;;;;;3.85;1.90;;;;;;;;;;5071817;28;20375;-84
2022/10/16 16:41:22;;;;;;;6.88;2.10;;;;;;;;;;5071601;28;20380;-84
2022/10/16 16:43:48;;;;;;;11.60;1.90;;;;;;;;;;5071518;28;20395;-84
2022/10/16 16:46:15;;;;;;;8.85;1.98;;;;;;;;;;5071781;28;20445;-84
2022/10/16 16:48:41;;;;;;;8.13;1.90;;;;;;;;;;5071726;28;20403;-83
2022/10/16 16:51:16;;;;;;;9.43;1.77;;;;;;;;;;5071538;28;20482;-83
2022/10/16 16:53:45;;;;;;;8.73;2.22;;;;;;;;;;5071844;28;20376;-86
2022/10/16 16:56:11;;;;;;;4.47;1.87;;;;;;;;;;5072143;28;20432;-84
2022/10/16 16:58:37;;;;;;;5.28;1.83;;;;;;;;;;5075391;28;20475;-83
2022/10/16 17:01:03;;;;;;;6.93;1.95;;;;;;;;;;5074044;28;20380;-84
2022/10/16 17:03:30;;;;;;;10.25;2.42;;;;;;;;;;5074187;28;20380;-84
2022/10/16 17:05:57;;;;;;;5.47;1.88;;;;;;;;;;5073063;28;20895;-84
2022/10/16 17:08:23;;;;;;;8.80;1.80;;;;;;;;;;5071659;28;20400;-84
2022/10/16 17:10:52;;;;;;;3.70;1.70;;;;;;;;;;5071064;28;20403;-83
2022/10/16 17:13:18;;;;;;;9.83;2.23;;;;;;;;;;5073087;28;20371;-83
2022/10/16 17:15:48;;;;;;;8.15;1.88;;;;;;;;;;5073964;28;20384;-84
2022/10/16 17:18:14;;;;;;;5.35;1.60;;;;;;;;;;5073039;28;20383;-84
2022/10/16 17:20:40;;;;;;;8.00;1.50;;;;;;;;;;5074401;28;20853;-84
2022/10/16 17:23:06;;;;;;;10.25;2.05;;;;;;;;;;5075002;28;20380;-84
2022/10/16 17:25:32;;;;;;;5.80;1.60;;;;;;;;;;5074675;28;20384;-83
2022/10/16 17:27:58;;;;;;;4.57;1.70;;;;;;;;;;5074600;28;20394;-83
2022/10/16 17:30:25;;;;;;;4.87;1.80;;;;;;;;;;5072939;28;20514;-83
2022/10/16 17:32:50;;;;;;;6.95;1.90;;;;;;;;;;5073871;28;20384;-83
2022/10/16 17:35:16;;;;;;;5.50;1.70;;;;;;;;;;5069986;28;20457;-83
2022/10/16 17:37:42;;;;;;;7.53;1.90;;;;;;;;;;5074569;28;20466;-83
2022/10/16 17:40:09;;;;;;;6.75;1.92;;;;;;;;;;5073945;28;20875;-83
2022/10/16 17:42:35;;;;;;;6.68;1.83;;;;;;;;;;5072080;28;20391;-83
2022/10/16 17:45:01;;;;;;;4.60;2.05;;;;;;;;;;5073566;28;20375;-83
2022/10/16 17:47:28;;;;;;;4.90;1.80;;;;;;;;;;5073789;28;20886;-83
2022/10/16 17:49:54;;;;;;;5.78;2.20;;;;;;;;;;5074172;28;20403;-84
2022/10/16 17:52:20;;;;;;;3.20;1.90;;;;;;;;;;5073374;28;20376;-83
2022/10/16 17:54:46;;;;;;;6.03;2.30;;;;;;;;;;5070289;28;20550;-84
2022/10/16 17:57:12;;;;;;;4.87;2.60;;;;;;;;;;5073668;28;20383;-84
2022/10/16 17:59:38;;;;;;;3.92;2.38;;;;;;;;;;5073464;28;20861;-84
2022/10/16 18:02:04;;;;;;;7.03;2.50;;;;;;;;;;5072800;28;20403;-84
2022/10/16 18:04:30;;;;;;;4.78;2.83;;;;;;;;;;5073015;28;20423;-83
2022/10/16 18:06:56;;;;;;;5.15;2.78;;;;;;;;;;5073686;28;20423;-83
2022/10/16 18:09:23;;;;;;;5.20;3.28;;;;;;;;;;5068462;28;20403;-83
2022/10/16 18:11:54;;;;;;;5.50;3.70;;;;;;;;;;5072655;28;20423;-83
2022/10/16 18:14:20;;;;;;;7.85;3.40;;;;;;;;;;5061572;28;20380;-83
2022/10/16 18:16:46;;;;;;;5.05;3.75;;;;;;;;;;5073851;28;20395;-84
2022/10/16 18:19:12;;;;;;;5.00;4.20;;;;;;;;;;5072930;28;20420;-83
2022/10/16 18:21:38;;;;;;;4.93;3.97;;;;;;;;;;5073948;28;20459;-83
2022/10/16 18:24:04;;;;;;;6.25;3.80;;;;;;;;;;5068179;28;20379;-84
2022/10/16 18:26:30;;;;;;;4.68;3.42;;;;;;;;;;5071385;28;20463;-84
2022/10/16 18:28:57;;;;;;;11.07;3.67;;;;;;;;;;5072607;28;20461;-84
2022/10/16 18:31:25;;;;;;;5.43;3.50;;;;;;;;;;5073156;28;20447;-84
2022/10/16 18:33:51;;;;;;;10.80;2.80;;;;;;;;;;5073499;28;20375;-84
2022/10/16 18:36:18;;;;;;;5.32;2.20;;;;;;;;;;5073405;28;20467;-82
2022/10/16 18:38:47;;;;;;;4.70;2.60;;;;;;;;;;5072871;28;20375;-83
2022/10/16 18:41:13;;;;;;;6.68;2.53;;;;;;;;;;5071049;28;20383;-82
2022/10/16 18:43:39;;;;;;;4.50;2.70;;;;;;;;;;5070506;28;20524;-83
2022/10/16 18:46:16;;;;;;;5.00;2.95;;;;;;;;;;5068658;28;20504;-82
2022/10/16 18:48:42;;;;;;;3.72;2.83;;;;;;;;;;5069594;28;20876;-83
2022/10/16 18:51:15;;;;;;;5.93;2.80;;;;;;;;;;5072467;28;20456;-85
2022/10/16 18:53:42;;;;;;;4.38;2.80;;;;;;;;;;5070170;28;20884;-84